Time;durP1;ratioP1;P1;durP2;ratioP2;P2;SDS_P1;SDS_P2;PMS_P1;PMS_P2;Temp;Humidity;BMP_temperature;BMP_pressure;BME280_temperature;BME280_humidity;BME280_pressure;Samples;Min_cycle;Max_cycle;Signal;HPM_P1;HPM_P2
2022/01/20 00:01:46;;;;;;;14.23;2.97;;;;;;;2.23;95.07;101117.06;5040905;28;20052;-88
2022/01/20 00:04:22;;;;;;;19.13;3.78;;;;;;;2.20;95.68;101109.22;5028767;28;20049;-87
2022/01/20 00:07:25;;;;;;;17.70;2.80;;;;;;;2.13;96.61;101107.28;5023592;28;20055;-87
2022/01/20 00:25:45;;;;;;;16.92;4.28;;;;;;;2.10;100.00;101082.22;5039732;28;20288;-88
2022/01/20 00:26:21;;;;;;;18.08;5.20;;;;;;;2.09;100.00;101095.09;5033071;28;20040;-88
2022/01/20 00:28:53;;;;;;;19.40;4.20;;;;;;;2.03;100.00;101100.03;5023460;28;21392;-87
2022/01/20 00:31:34;;;;;;;14.15;2.92;;;;;;;1.99;100.00;101099.06;5027124;28;20532;-89
2022/01/20 00:34:12;;;;;;;15.05;3.10;;;;;;;1.98;100.00;101099.88;5056405;28;21461;-87
2022/01/20 00:39:23;;;;;;;21.75;3.47;;;;;;;1.87;100.00;101111.56;5034478;28;20036;-89
2022/01/20 00:41:50;;;;;;;27.25;5.43;;;;;;;1.85;100.00;101101.16;5046356;28;20131;-88
2022/01/20 00:44:16;;;;;;;19.80;4.22;;;;;;;1.84;100.00;101099.44;5039870;28;20049;-89
2022/01/20 00:46:44;;;;;;;20.23;5.15;;;;;;;1.84;100.00;101107.19;5052795;28;20041;-87
2022/01/20 00:49:10;;;;;;;22.08;4.95;;;;;;;1.83;100.00;101108.00;5053863;28;20045;-88
2022/01/20 00:51:37;;;;;;;16.35;3.50;;;;;;;1.87;100.00;101111.56;5034771;28;20044;-88
2022/01/20 00:54:03;;;;;;;18.60;5.53;;;;;;;1.84;100.00;101112.34;5053128;28;20048;-88
2022/01/20 00:56:30;;;;;;;17.38;3.83;;;;;;;1.83;100.00;101109.72;5036880;28;20513;-88
2022/01/20 00:58:56;;;;;;;33.03;6.57;;;;;;;1.83;100.00;101112.28;5037544;28;20382;-88
2022/01/20 01:01:25;;;;;;;26.75;4.57;;;;;;;1.80;100.00;101108.78;5044130;28;20051;-88
2022/01/20 01:03:52;;;;;;;12.07;2.80;;;;;;;1.78;100.00;101109.53;5062088;28;20056;-89
2022/01/20 01:06:31;;;;;;;15.13;3.25;;;;;;;1.74;100.00;101103.38;5045150;28;20063;-89
2022/01/20 01:08:58;;;;;;;20.80;4.30;;;;;;;1.75;100.00;101097.41;5055059;28;20048;-88
2022/01/20 01:11:25;;;;;;;12.25;3.25;;;;;;;1.74;100.00;101105.97;5043492;28;20286;-89
2022/01/20 01:13:52;;;;;;;16.15;3.08;;;;;;;1.78;100.00;101107.81;5043602;28;21093;-88
2022/01/20 01:16:22;;;;;;;21.92;3.63;;;;;;;1.81;100.00;101110.53;5046417;28;20045;-88
2022/01/20 01:21:43;;;;;;;10.65;3.05;;;;;;;1.76;100.00;101104.34;5032775;28;20610;-90
2022/01/20 01:24:10;;;;;;;17.85;4.35;;;;;;;1.79;100.00;101104.44;5048162;28;20106;-88
2022/01/20 01:26:36;;;;;;;14.20;3.85;;;;;;;1.82;100.00;101098.50;5065568;28;21242;-88
2022/01/20 01:29:14;;;;;;;13.90;3.22;;;;;;;1.89;100.00;101100.47;5043806;28;20044;-88
2022/01/20 01:31:41;;;;;;;19.08;5.03;;;;;;;1.96;100.00;101123.06;5043264;28;20051;-88
2022/01/20 01:34:10;;;;;;;23.10;4.95;;;;;;;1.97;100.00;101111.91;5037951;28;20126;-88
2022/01/20 01:37:03;;;;;;;14.05;4.43;;;;;;;2.00;100.00;101105.13;5029303;28;20110;-89
2022/01/20 01:39:29;;;;;;;16.73;3.13;;;;;;;2.03;100.00;101105.22;5044585;28;20071;-89
2022/01/20 01:41:57;;;;;;;13.98;4.28;;;;;;;2.10;100.00;101113.22;5039980;28;20041;-89
2022/01/20 01:44:27;;;;;;;22.30;5.60;;;;;;;2.24;100.00;101118.84;5030067;28;20052;-89
2022/01/20 01:46:55;;;;;;;12.27;2.55;;;;;;;2.34;100.00;101120.00;5019873;28;20049;-88
2022/01/20 01:49:22;;;;;;;20.73;3.58;;;;;;;2.43;99.96;101109.94;5025311;28;20045;-88
2022/01/20 01:51:48;;;;;;;20.10;4.57;;;;;;;2.41;100.00;101114.22;5031199;28;20625;-88
2022/01/20 01:54:17;;;;;;;9.23;3.10;;;;;;;2.37;100.00;101133.00;5034975;28;20103;-89
2022/01/20 01:56:46;;;;;;;21.83;4.75;;;;;;;2.36;100.00;101126.09;5047124;28;20080;-89
2022/01/20 01:59:12;;;;;;;10.65;3.00;;;;;;;2.38;100.00;101127.00;5018215;28;20503;-88
2022/01/20 02:01:40;;;;;;;14.90;3.83;;;;;;;2.38;100.00;101121.84;5039645;28;20037;-89
2022/01/20 02:04:15;;;;;;;14.52;2.60;;;;;;;2.39;100.00;101112.41;5020995;28;20320;-88
2022/01/20 02:07:06;;;;;;;9.35;2.60;;;;;;;2.39;100.00;101102.06;5026094;28;20052;-89
2022/01/20 02:17:48;;;;;;;26.17;4.03;;;;;;;2.39;100.00;101091.75;5051406;28;20551;-88
2022/01/20 02:18:23;;;;;;;20.67;3.28;;;;;;;2.36;100.00;101078.69;5036563;28;20040;-88
2022/01/20 02:20:50;;;;;;;23.98;5.63;;;;;;;2.35;100.00;101088.16;5025850;28;20045;-88
2022/01/20 02:23:16;;;;;;;14.63;3.42;;;;;;;2.34;100.00;101086.41;5023515;28;21461;-88
2022/01/20 02:25:43;;;;;;;9.25;2.20;;;;;;;2.34;100.00;101083.81;5027189;28;20049;-87
2022/01/20 02:28:11;;;;;;;14.32;2.95;;;;;;;2.35;100.00;101075.25;5039651;28;20076;-87
2022/01/20 02:30:42;;;;;;;12.05;3.05;;;;;;;2.36;100.00;101079.59;5021158;28;20049;-88
2022/01/20 02:33:19;;;;;;;7.30;3.65;;;;;;;2.37;100.00;101071.00;5039455;28;20041;-88
2022/01/20 02:35:54;;;;;;;11.93;3.33;;;;;;;2.41;100.00;101067.69;5035158;28;20529;-89
2022/01/20 02:38:32;;;;;;;13.75;4.40;;;;;;;2.47;100.00;101067.88;5039879;28;20044;-87
2022/01/20 02:46:29;;;;;;;12.60;3.78;;;;;;;2.48;100.00;101061.00;5026166;28;20052;-88
2022/01/20 02:48:57;;;;;;;15.13;3.20;;;;;;;2.50;100.00;101068.81;5021817;28;20083;-87
2022/01/20 02:51:24;;;;;;;17.70;4.05;;;;;;;2.47;100.00;101067.88;5038499;28;20045;-87
2022/01/20 02:53:51;;;;;;;14.63;3.97;;;;;;;2.52;100.00;101055.09;5017198;28;20064;-87
2022/01/20 02:56:19;;;;;;;17.25;3.80;;;;;;;2.51;100.00;101055.06;5022026;28;20167;-88
2022/01/20 02:58:46;;;;;;;13.10;2.45;;;;;;;2.49;100.00;101055.03;5028879;28;20048;-87
2022/01/20 03:01:12;;;;;;;14.45;2.47;;;;;;;2.47;100.00;101048.91;5018279;28;20059;-88
2022/01/20 03:03:39;;;;;;;7.45;2.35;;;;;;;2.48;100.00;101055.84;5036871;28;20103;-88
2022/01/20 03:06:05;;;;;;;7.95;1.80;;;;;;;2.48;100.00;101050.69;5017786;28;20052;-88
2022/01/20 03:08:33;;;;;;;17.00;2.97;;;;;;;2.46;100.00;101050.63;5027214;28;20048;-89
2022/01/20 03:11:00;;;;;;;9.52;3.28;;;;;;;2.46;100.00;101045.47;5025088;28;20443;-88
2022/01/20 03:13:26;;;;;;;10.48;2.65;;;;;;;2.45;100.00;101042.81;5020178;28;20060;-88
2022/01/20 03:15:53;;;;;;;10.60;2.13;;;;;;;2.41;100.00;101041.88;5020290;28;20581;-87
2022/01/20 03:18:20;;;;;;;10.75;1.77;;;;;;;2.35;100.00;101036.50;5034970;28;20049;-87
2022/01/20 03:20:46;;;;;;;7.15;2.75;;;;;;;2.25;100.00;101045.66;5039179;28;21305;-87
2022/01/20 03:23:13;;;;;;;7.93;2.40;;;;;;;2.18;100.00;101035.09;5018762;28;20053;-88
2022/01/20 03:25:39;;;;;;;7.65;1.42;;;;;;;2.14;100.00;101040.16;5037236;28;20321;-87
2022/01/20 03:28:06;;;;;;;4.85;1.17;;;;;;;2.13;100.00;101042.69;5035941;28;20048;-88
2022/01/20 03:30:34;;;;;;;10.75;2.00;;;;;;;2.13;100.00;101047.88;5018250;28;20094;-89
2022/01/20 03:33:01;;;;;;;9.27;1.73;;;;;;;2.14;100.00;101041.88;5034728;28;20507;-88
2022/01/20 03:35:28;;;;;;;13.60;1.90;;;;;;;2.11;100.00;101034.91;5027029;28;20075;-85
2022/01/20 03:37:54;;;;;;;5.78;0.90;;;;;;;2.09;100.00;101035.69;5015837;28;20056;-87
2022/01/20 03:40:23;;;;;;;3.10;1.17;;;;;;;2.06;100.00;101040.75;5022779;28;20060;-86
2022/01/20 03:42:50;;;;;;;4.20;0.90;;;;;;;2.07;100.00;101037.34;5017541;28;20053;-87
2022/01/20 03:45:16;;;;;;;7.40;1.52;;;;;;;2.07;100.00;101029.59;5036221;28;20060;-86
2022/01/20 03:47:43;;;;;;;4.05;0.70;;;;;;;2.12;100.00;101030.59;5027396;28;20086;-86
2022/01/20 03:50:59;;;;;;;7.78;1.13;;;;;;;2.07;100.00;101038.19;5036788;28;20056;-86
2022/01/20 03:52:57;;;;;;;4.53;0.85;;;;;;;2.10;100.00;101050.34;5027330;28;20492;-86
2022/01/20 03:55:23;;;;;;;5.40;0.90;;;;;;;2.11;100.00;101053.00;5034991;28;20055;-86
2022/01/20 03:57:50;;;;;;;5.65;0.98;;;;;;;2.17;100.00;101065.22;5036396;28;20060;-86
2022/01/20 04:00:16;;;;;;;8.27;1.10;;;;;;;2.20;100.00;101049.78;5022696;28;20049;-86
2022/01/20 04:02:43;;;;;;;3.00;1.15;;;;;;;2.24;100.00;101063.69;5037306;28;20053;-85
2022/01/20 04:05:09;;;;;;;6.68;1.10;;;;;;;2.28;100.00;101070.72;5036755;28;20048;-88
2022/01/20 04:07:36;;;;;;;5.00;0.57;;;;;;;2.25;100.00;101070.63;5033110;28;20049;-88
2022/01/20 04:10:02;;;;;;;6.82;0.50;;;;;;;2.21;100.00;101066.19;5020098;28;20059;-89
2022/01/20 04:12:29;;;;;;;3.63;0.45;;;;;;;2.15;100.00;101074.59;5041627;28;20554;-87
2022/01/20 04:14:55;;;;;;;1.73;0.35;;;;;;;2.01;100.00;101083.59;5034155;28;20372;-88
2022/01/20 04:17:26;;;;;;;1.33;0.50;;;;;;;1.87;100.00;101073.72;5018991;28;20048;-86
2022/01/20 04:19:52;;;;;;;1.10;0.20;;;;;;;1.74;100.00;101094.78;5020733;28;20194;-88
2022/01/20 04:22:19;;;;;;;2.15;0.20;;;;;;;1.64;100.00;101103.91;5020856;28;20324;-88
2022/01/20 04:24:45;;;;;;;1.17;0.55;;;;;;;1.59;100.00;101106.34;5042264;28;20044;-88
2022/01/20 04:27:12;;;;;;;3.08;0.30;;;;;;;1.55;100.00;101101.91;5029834;28;20052;-88
2022/01/20 04:29:38;;;;;;;5.05;0.68;;;;;;;1.52;100.00;101109.50;5021298;28;20078;-88
2022/01/20 04:32:05;;;;;;;3.92;0.70;;;;;;;1.49;100.00;101099.09;5017305;28;20556;-88
2022/01/20 04:34:31;;;;;;;2.88;0.90;;;;;;;1.50;100.00;101093.13;5036479;28;20056;-88
2022/01/20 04:36:59;;;;;;;1.40;0.52;;;;;;;1.46;100.00;101098.97;5041596;28;20045;-88
2022/01/20 04:39:28;;;;;;;11.13;1.05;;;;;;;1.44;100.00;101098.03;5035343;28;20053;-87
2022/01/20 04:41:55;;;;;;;4.60;2.05;;;;;;;1.48;100.00;101102.50;5020724;28;20286;-88
2022/01/20 04:44:34;;;;;;;4.63;0.85;;;;;;;1.51;100.00;101104.28;5018196;28;20118;-87
2022/01/20 04:47:11;;;;;;;15.98;1.45;;;;;;;1.54;100.00;101118.19;5018271;28;20045;-88
2022/01/20 04:57:51;;;;;;;6.05;0.82;;;;;;;1.58;100.00;101137.25;5032799;28;20036;-87
2022/01/20 05:00:18;;;;;;;2.38;1.00;;;;;;;1.55;100.00;101147.44;5037015;28;20051;-88
2022/01/20 05:02:44;;;;;;;6.07;0.88;;;;;;;1.53;100.00;101149.97;5033455;28;20049;-88
2022/01/20 05:05:10;;;;;;;4.55;1.23;;;;;;;1.52;100.00;101158.53;5043018;28;20366;-88
2022/01/20 05:07:38;;;;;;;4.82;1.02;;;;;;;1.52;100.00;101165.41;5039991;28;20049;-88
2022/01/20 05:10:08;;;;;;;9.85;1.40;;;;;;;1.49;100.00;101171.34;5030152;28;20586;-88
2022/01/20 05:12:59;;;;;;;7.93;2.20;;;;;;;1.49;100.00;101163.59;5033812;28;20154;-88
2022/01/20 05:15:23;;;;;;;11.02;1.40;;;;;;;1.51;100.00;101171.38;5020849;28;20274;-85
2022/01/20 05:17:51;;;;;;;6.25;1.30;;;;;;;1.51;100.00;101161.94;5023860;28;20571;-88
2022/01/20 05:20:17;;;;;;;4.82;1.33;;;;;;;1.51;100.00;101167.09;5038700;28;20559;-88
2022/01/20 05:22:44;;;;;;;4.13;1.30;;;;;;;1.53;100.00;101173.19;5013680;28;20053;-88
2022/01/20 05:25:11;;;;;;;7.32;2.03;;;;;;;1.56;100.00;101170.72;5035700;28;20044;-88
2022/01/20 05:27:37;;;;;;;6.50;1.98;;;;;;;1.56;100.00;101170.72;5018762;28;20040;-88
2022/01/20 05:30:05;;;;;;;6.43;1.90;;;;;;;1.57;99.58;101185.38;5016147;28;20055;-88
2022/01/20 05:32:31;;;;;;;6.05;2.30;;;;;;;1.57;99.42;101195.69;5016365;28;20106;-88
2022/01/20 05:34:57;;;;;;;8.55;1.98;;;;;;;1.59;99.00;101195.75;5029397;28;20495;-89
2022/01/20 05:37:24;;;;;;;10.38;2.33;;;;;;;1.58;98.47;101205.22;5018273;28;20436;-89
2022/01/20 05:39:51;;;;;;;9.00;2.50;;;;;;;1.62;99.15;101196.75;5029137;28;20048;-87
2022/01/20 05:42:17;;;;;;;9.48;3.33;;;;;;;1.61;97.68;101205.31;5018756;28;20049;-88
2022/01/20 05:44:45;;;;;;;5.28;1.83;;;;;;;1.63;96.90;101216.56;5034896;28;20057;-88
2022/01/20 05:47:14;;;;;;;7.95;1.70;;;;;;;1.65;95.86;101212.34;5034271;28;20060;-88
2022/01/20 05:49:40;;;;;;;10.13;2.33;;;;;;;1.68;94.83;101227.06;5021809;28;20041;-88
2022/01/20 05:52:07;;;;;;;9.48;2.20;;;;;;;1.67;95.63;101234.75;5022675;28;20266;-88
2022/01/20 05:54:33;;;;;;;5.72;1.70;;;;;;;1.64;95.61;101246.72;5028104;28;20051;-88
2022/01/20 05:57:00;;;;;;;10.15;1.83;;;;;;;1.62;95.63;101244.91;5037366;28;20056;-88
2022/01/20 05:59:26;;;;;;;11.63;2.47;;;;;;;1.60;96.09;101250.03;5023575;28;20056;-89
2022/01/20 06:01:56;;;;;;;12.82;3.85;;;;;;;1.59;95.46;101258.59;5034287;28;20525;-88
2022/01/20 06:04:22;;;;;;;10.48;2.65;;;;;;;1.58;96.31;101269.72;5018220;28;20049;-88
2022/01/20 06:06:49;;;;;;;9.10;1.40;;;;;;;1.52;97.78;101271.19;5021184;28;20060;-89
2022/01/20 06:09:15;;;;;;;8.13;1.83;;;;;;;1.44;98.40;101265.75;5028554;28;20044;-87
2022/01/20 06:11:42;;;;;;;2.15;1.27;;;;;;;1.29;99.63;101266.91;5039797;28;20044;-89
2022/01/20 06:14:08;;;;;;;9.45;2.85;;;;;;;1.18;99.79;101275.91;5041736;28;20064;-88
2022/01/20 06:16:37;;;;;;;8.10;1.92;;;;;;;1.06;100.00;101288.34;5018004;28;20040;-89
2022/01/20 06:19:04;;;;;;;5.10;1.52;;;;;;;0.96;100.00;101282.78;5022419;28;20050;-88
2022/01/20 06:21:30;;;;;;;5.78;1.10;;;;;;;0.89;100.00;101283.38;5022602;28;20132;-88
2022/01/20 06:23:57;;;;;;;1.48;0.85;;;;;;;0.83;100.00;101290.84;5034358;28;20049;-87
2022/01/20 06:26:23;;;;;;;5.72;1.42;;;;;;;0.74;100.00;101278.47;5039679;28;20045;-87
2022/01/20 06:28:49;;;;;;;9.25;1.92;;;;;;;0.68;100.00;101287.63;5038195;28;20075;-87
2022/01/20 06:31:16;;;;;;;9.60;1.60;;;;;;;0.57;100.00;101279.47;5039609;28;20053;-87
2022/01/20 06:33:43;;;;;;;4.50;1.70;;;;;;;0.49;100.00;101289.44;5039373;28;20040;-88
2022/01/20 06:36:10;;;;;;;7.65;1.58;;;;;;;0.42;100.00;101290.03;5045892;28;20112;-88
2022/01/20 06:38:36;;;;;;;5.07;1.33;;;;;;;0.38;100.00;101296.72;5041317;28;20079;-87
2022/01/20 06:41:03;;;;;;;8.07;3.20;;;;;;;0.41;100.00;101301.13;5025232;28;20060;-86
2022/01/20 06:43:29;;;;;;;8.50;2.08;;;;;;;0.44;100.00;101297.00;5037272;28;20049;-87
2022/01/20 06:45:56;;;;;;;9.45;2.00;;;;;;;0.53;100.00;101293.03;5027685;28;20048;-87
2022/01/20 06:48:23;;;;;;;14.60;1.98;;;;;;;0.54;98.13;101307.69;5018947;28;20363;-87
2022/01/20 06:50:50;;;;;;;5.45;1.13;;;;;;;0.46;97.20;101315.09;5037932;28;20049;-87
2022/01/20 06:53:16;;;;;;;6.65;1.65;;;;;;;0.35;96.73;101324.03;5034715;28;20932;-86
2022/01/20 06:55:43;;;;;;;7.93;1.83;;;;;;;0.26;96.55;101338.28;5045856;28;20071;-86
2022/01/20 06:58:09;;;;;;;11.80;1.98;;;;;;;0.28;96.15;101328.91;5039663;28;20052;-88
2022/01/20 07:00:36;;;;;;;8.90;3.22;;;;;;;0.30;95.58;101335.03;5035231;28;20533;-87
2022/01/20 07:03:03;;;;;;;6.50;1.35;;;;;;;0.40;95.37;101343.16;5036992;28;20044;-87
2022/01/20 07:05:29;;;;;;;9.25;3.53;;;;;;;0.48;95.14;101352.09;5011786;28;20151;-88
2022/01/20 07:07:56;;;;;;;8.85;1.83;;;;;;;0.60;94.01;101359.47;5026362;28;20048;-88
2022/01/20 07:10:23;;;;;;;11.70;2.08;;;;;;;0.64;93.49;101359.66;5023280;28;20053;-88
2022/01/20 07:12:50;;;;;;;7.65;2.05;;;;;;;0.61;93.19;101350.91;5035186;28;20079;-88
2022/01/20 07:15:19;;;;;;;7.90;1.73;;;;;;;0.56;94.09;101355.88;5041138;28;20099;-88
2022/01/20 07:17:45;;;;;;;8.73;3.42;;;;;;;0.58;94.92;101361.97;5025045;28;20154;-87
2022/01/20 07:20:16;;;;;;;8.25;2.30;;;;;;;0.60;94.62;101368.09;5039004;28;20049;-88
2022/01/20 07:22:43;;;;;;;10.02;1.67;;;;;;;0.60;93.88;101362.03;5042457;28;20173;-88
2022/01/20 07:25:10;;;;;;;8.95;3.28;;;;;;;0.61;92.26;101384.41;5022989;28;20090;-86
2022/01/20 07:27:38;;;;;;;7.35;1.73;;;;;;;0.63;92.47;101383.66;5025439;28;20135;-88
2022/01/20 07:30:05;;;;;;;9.88;2.08;;;;;;;0.66;91.94;101388.06;5023378;28;20515;-88
2022/01/20 07:32:32;;;;;;;16.23;3.22;;;;;;;0.68;91.75;101383.88;5024020;28;20044;-88
2022/01/20 07:34:58;;;;;;;10.63;2.10;;;;;;;0.67;90.41;101388.97;5042387;28;20555;-88
2022/01/20 07:37:25;;;;;;;6.10;1.70;;;;;;;0.63;90.60;101391.41;5020255;28;20100;-88
2022/01/20 07:39:53;;;;;;;12.68;2.22;;;;;;;0.54;91.83;101393.56;5038656;28;20045;-89
2022/01/20 07:42:19;;;;;;;12.52;2.25;;;;;;;0.44;92.71;101391.41;5034728;28;20052;-88
2022/01/20 07:44:46;;;;;;;12.25;2.72;;;;;;;0.36;93.14;101379.88;5037570;28;20396;-88
2022/01/20 07:47:12;;;;;;;14.98;3.70;;;;;;;0.29;93.96;101392.50;5043237;28;20542;-87
2022/01/20 07:49:39;;;;;;;13.27;2.05;;;;;;;0.21;94.37;101395.53;5020807;28;20048;-88
2022/01/20 07:52:05;;;;;;;10.07;2.63;;;;;;;0.14;94.88;101408.13;5041573;28;20044;-88
2022/01/20 07:54:32;;;;;;;12.82;2.72;;;;;;;0.09;94.63;101398.44;5039254;28;20621;-87
2022/01/20 07:56:59;;;;;;;12.63;2.15;;;;;;;0.07;94.79;101410.38;5020735;28;20139;-88
2022/01/20 07:59:26;;;;;;;8.48;1.77;;;;;;;0.03;95.15;101401.59;5041138;28;20053;-88
2022/01/20 08:01:53;;;;;;;10.23;2.28;;;;;;;0.11;95.71;101409.69;5032392;28;20185;-88
2022/01/20 08:04:20;;;;;;;5.20;1.33;;;;;;;0.16;95.28;101416.78;5020490;28;20067;-88
2022/01/20 08:06:47;;;;;;;8.80;2.17;;;;;;;0.15;94.85;101425.31;5033536;28;20059;-88
2022/01/20 08:09:14;;;;;;;11.55;3.55;;;;;;;0.14;94.13;101433.88;5022092;28;20074;-88
2022/01/20 08:11:41;;;;;;;11.90;2.67;;;;;;;0.14;94.72;101451.91;5041696;28;20458;-88
2022/01/20 08:14:08;;;;;;;11.18;2.95;;;;;;;0.09;95.13;101458.53;5032220;28;20048;-88
2022/01/20 08:16:35;;;;;;;7.43;1.92;;;;;;;0.07;95.30;101457.56;5025573;28;20052;-87
2022/01/20 08:19:01;;;;;;;8.07;1.63;;;;;;;0.04;95.56;101451.38;5041170;28;20178;-87
2022/01/20 08:21:28;;;;;;;6.15;2.05;;;;;;;0.07;95.11;101454.13;5038548;28;20459;-88
2022/01/20 08:23:54;;;;;;;6.55;2.33;;;;;;;0.13;95.57;101465.59;5040167;28;20044;-88
2022/01/20 08:26:21;;;;;;;8.10;1.83;;;;;;;0.33;95.00;101450.16;5019639;28;20048;-89
2022/01/20 08:28:48;;;;;;;3.42;1.30;;;;;;;0.57;93.64;101454.66;5031151;28;20126;-88
2022/01/20 08:31:14;;;;;;;12.90;1.83;;;;;;;0.80;93.10;101438.50;5022187;28;20051;-88
2022/01/20 08:33:41;;;;;;;7.72;1.38;;;;;;;0.99;90.52;101447.03;5039419;28;20167;-88
2022/01/20 08:36:07;;;;;;;5.32;1.75;;;;;;;1.07;89.11;101450.84;5027859;28;20361;-88
2022/01/20 08:38:34;;;;;;;12.52;2.42;;;;;;;1.05;89.25;101456.75;5024309;28;20053;-87
2022/01/20 08:41:00;;;;;;;10.18;3.35;;;;;;;1.00;88.44;101451.38;5038556;28;20064;-87
2022/01/20 08:43:27;;;;;;;7.85;2.28;;;;;;;0.97;88.66;101449.56;5038773;28;20052;-87
2022/01/20 08:45:53;;;;;;;13.77;1.95;;;;;;;1.05;88.43;101446.44;5038035;28;20123;-88
2022/01/20 08:48:20;;;;;;;2.65;1.50;;;;;;;1.23;87.23;101447.22;5025512;28;20048;-88
2022/01/20 08:50:46;;;;;;;6.63;1.23;;;;;;;1.32;86.40;101438.97;5023147;28;20052;-87
2022/01/20 08:53:13;;;;;;;4.93;1.42;;;;;;;1.36;85.66;101447.75;5037946;28;20455;-88
2022/01/20 08:55:40;;;;;;;9.45;1.65;;;;;;;1.35;86.14;101451.13;5040700;28;20076;-88
2022/01/20 08:58:07;;;;;;;10.82;1.92;;;;;;;1.34;86.57;101451.94;5020941;28;20053;-88
2022/01/20 09:00:35;;;;;;;7.57;1.52;;;;;;;1.28;85.50;101456.03;5022059;28;20584;-88
2022/01/20 09:03:04;;;;;;;6.38;1.25;;;;;;;1.22;85.43;101449.72;5018073;28;20036;-88
2022/01/20 09:05:31;;;;;;;7.32;3.17;;;;;;;1.20;86.16;101451.34;5024380;28;20045;-88
2022/01/20 09:07:57;;;;;;;8.07;2.25;;;;;;;1.21;85.85;101454.00;5017968;28;20061;-87
2022/01/20 09:10:24;;;;;;;4.13;1.63;;;;;;;1.28;86.02;101456.03;5024319;28;20052;-88
2022/01/20 09:15:38;;;;;;;9.25;1.50;;;;;;;1.44;84.38;101452.38;5032821;28;20541;-88
2022/01/20 09:18:09;;;;;;;6.00;1.00;;;;;;;1.51;83.68;101452.63;5032504;28;20044;-88
2022/01/20 09:20:38;;;;;;;8.65;1.70;;;;;;;1.55;83.64;101451.94;5021295;28;20067;-88
2022/01/20 09:23:06;;;;;;;6.25;1.85;;;;;;;1.63;84.19;101432.47;5033613;28;20098;-88
2022/01/20 09:25:33;;;;;;;9.82;2.88;;;;;;;1.74;82.65;101440.66;5046513;28;20047;-87
2022/01/20 09:28:00;;;;;;;7.60;1.85;;;;;;;1.83;82.36;101446.19;5032947;28;20052;-88
2022/01/20 09:30:28;;;;;;;3.58;1.83;;;;;;;1.88;82.28;101449.84;5040893;28;20147;-88
2022/01/20 09:33:00;;;;;;;15.70;1.73;;;;;;;1.87;82.06;101457.53;5038056;28;21423;-88
2022/01/20 09:35:34;;;;;;;3.38;1.20;;;;;;;1.79;82.36;101452.91;5045032;28;20680;-88
2022/01/20 09:38:04;;;;;;;8.13;1.80;;;;;;;1.69;83.14;101483.47;5019704;28;20131;-88
2022/01/20 09:40:33;;;;;;;11.43;2.38;;;;;;;1.60;84.39;101479.72;5042457;28;20086;-88
2022/01/20 09:43:01;;;;;;;14.85;1.90;;;;;;;1.55;85.30;101483.81;5039229;28;20498;-88
2022/01/20 09:45:28;;;;;;;12.63;2.70;;;;;;;1.55;84.93;101491.53;5017496;28;20510;-88
2022/01/20 09:47:55;;;;;;;9.32;1.98;;;;;;;1.56;85.76;101487.25;5027781;28;20056;-88
2022/01/20 09:50:24;;;;;;;8.15;1.58;;;;;;;1.58;85.27;101489.06;5020820;28;20045;-88
2022/01/20 09:52:52;;;;;;;9.30;1.70;;;;;;;1.59;85.01;101490.84;5042820;28;20574;-89
2022/01/20 09:55:19;;;;;;;11.70;2.20;;;;;;;1.61;85.13;101481.44;5024237;28;20053;-88
2022/01/20 09:57:46;;;;;;;7.88;2.28;;;;;;;1.74;84.70;101492.28;5037452;28;20578;-89
2022/01/20 10:00:17;;;;;;;9.30;2.53;;;;;;;1.84;83.88;101486.69;5039394;28;20422;-89
2022/01/20 10:02:54;;;;;;;12.52;3.65;;;;;;;1.85;83.32;101487.56;5034323;28;20041;-89
2022/01/20 10:05:49;;;;;;;5.75;1.83;;;;;;;1.78;81.58;101486.44;5045256;28;20049;-89
2022/01/20 10:08:21;;;;;;;4.95;1.55;;;;;;;1.73;82.70;101488.81;5043681;28;20058;-90
2022/01/20 10:10:52;;;;;;;4.43;1.58;;;;;;;1.71;82.79;101494.72;5037963;28;20121;-89
2022/01/20 10:13:23;;;;;;;6.30;2.45;;;;;;;1.69;83.15;101481.75;5040823;28;20048;-89
2022/01/20 10:16:07;;;;;;;14.07;3.95;;;;;;;1.67;82.41;101483.41;5038859;28;20076;-89
2022/01/20 10:18:53;;;;;;;5.35;2.55;;;;;;;1.64;83.05;101488.44;5043534;28;20135;-88
2022/01/20 10:21:32;;;;;;;6.85;1.77;;;;;;;1.63;83.72;101479.81;5038708;28;20057;-89
2022/01/20 10:24:14;;;;;;;15.55;2.35;;;;;;;1.62;84.08;101498.69;5026466;28;20597;-88
2022/01/20 10:26:41;;;;;;;6.13;1.55;;;;;;;1.62;83.79;101497.84;5042356;28;20545;-88
2022/01/20 10:29:16;;;;;;;7.97;1.83;;;;;;;1.62;84.19;101514.19;5022299;28;20052;-88
2022/01/20 10:31:49;;;;;;;11.93;2.67;;;;;;;1.57;84.08;101510.53;5039343;28;20391;-88
2022/01/20 10:34:30;;;;;;;9.90;3.78;;;;;;;1.55;84.57;101500.97;5018901;28;20052;-89
2022/01/20 10:37:02;;;;;;;8.15;2.65;;;;;;;1.57;84.52;101502.78;5024706;28;20587;-89
2022/01/20 10:39:43;;;;;;;14.07;3.38;;;;;;;1.65;84.46;101511.72;5009144;28;20135;-88
2022/01/20 10:42:20;;;;;;;12.95;1.77;;;;;;;1.79;85.02;101498.53;5028798;28;20040;-88
2022/01/20 10:44:51;;;;;;;5.70;1.85;;;;;;;2.04;84.24;101505.53;5032000;28;20500;-88
2022/01/20 10:47:25;;;;;;;6.75;1.52;;;;;;;2.19;82.32;101502.69;5040234;28;20566;-88
2022/01/20 10:49:52;;;;;;;6.32;1.95;;;;;;;2.25;81.70;101505.50;5046971;28;20080;-89
2022/01/20 10:52:23;;;;;;;12.40;2.47;;;;;;;2.19;81.17;101505.28;5042650;28;20049;-90
2022/01/20 10:54:55;;;;;;;10.90;2.15;;;;;;;2.10;82.79;101529.03;5027766;28;20059;-88
2022/01/20 10:57:35;;;;;;;11.57;2.40;;;;;;;2.06;82.87;101536.59;5035811;28;20053;-88
2022/01/20 11:00:10;;;;;;;12.20;3.05;;;;;;;1.97;84.59;101526.78;5041331;28;20134;-90
2022/01/20 11:02:37;;;;;;;10.50;1.58;;;;;;;1.92;85.52;101521.44;5024496;28;20537;-89
2022/01/20 11:05:06;;;;;;;3.63;1.50;;;;;;;1.92;86.71;101516.25;5046654;28;20071;-89
2022/01/20 11:07:33;;;;;;;12.32;2.22;;;;;;;1.79;87.59;101535.53;5049318;28;20044;-89
2022/01/20 11:10:03;;;;;;;8.18;1.80;;;;;;;1.67;89.68;101522.13;5045741;28;20500;-89
2022/01/20 11:12:30;;;;;;;18.02;2.90;;;;;;;1.51;91.62;101538.66;5044113;28;20053;-89
2022/01/20 11:15:00;;;;;;;3.30;1.27;;;;;;;1.39;93.33;101538.16;5029391;28;20080;-88
2022/01/20 11:17:33;;;;;;;15.85;2.53;;;;;;;1.32;94.67;101530.13;5040954;28;20057;-89
2022/01/20 11:20:08;;;;;;;14.73;3.25;;;;;;;1.29;94.97;101530.00;5030922;28;20120;-89
2022/01/20 11:23:10;;;;;;;7.30;1.80;;;;;;;1.24;95.84;101526.34;5037686;28;20044;-89
2022/01/20 11:25:41;;;;;;;5.38;1.30;;;;;;;1.15;97.20;101521.66;5024127;28;20079;-89
2022/01/20 11:28:26;;;;;;;7.22;1.30;;;;;;;1.15;98.34;101518.22;5028083;28;20141;-89
2022/01/20 11:31:05;;;;;;;11.90;1.77;;;;;;;1.21;97.74;101515.00;5023467;28;20147;-89
2022/01/20 11:33:44;;;;;;;6.63;2.35;;;;;;;1.27;96.68;101508.41;5033354;28;20443;-89
2022/01/20 11:36:31;;;;;;;5.03;2.42;;;;;;;1.28;97.20;101496.44;5025005;28;20091;-89
2022/01/20 11:39:05;;;;;;;10.02;1.27;;;;;;;1.34;97.63;101504.41;5033033;28;20323;-89
2022/01/20 11:41:46;;;;;;;5.75;1.33;;;;;;;1.31;97.20;101497.41;5044623;28;20171;-89
2022/01/20 11:44:20;;;;;;;6.35;2.17;;;;;;;1.22;98.24;101491.88;5046921;28;20048;-89
2022/01/20 11:46:54;;;;;;;8.15;1.85;;;;;;;1.28;97.80;101488.69;5032974;28;20083;-89
2022/01/20 11:49:25;;;;;;;;;;;;;;;1.33;96.70;101482.03;5031501;28;20482;-86
2022/01/20 11:51:58;;;;;;;4.05;2.08;;;;;;;1.43;96.96;101484.13;5022039;28;20271;-87
2022/01/20 11:54:25;;;;;;;10.50;2.00;;;;;;;1.62;96.26;101466.88;5046384;28;20032;-88
2022/01/20 11:56:52;;;;;;;12.45;2.47;;;;;;;1.65;94.96;101469.56;5049495;28;20106;-87
2022/01/20 11:59:18;;;;;;;9.15;2.63;;;;;;;1.69;95.11;101465.41;5050548;28;20458;-87
2022/01/20 12:01:52;;;;;;;8.25;2.88;;;;;;;1.80;94.50;101480.50;5029343;28;20041;-87
2022/01/20 12:04:43;;;;;;;9.02;2.55;;;;;;;2.03;93.33;101464.16;5030791;28;20048;-87
2022/01/20 12:07:11;;;;;;;7.28;2.10;;;;;;;2.21;90.98;101464.88;5026674;28;20052;-89
2022/01/20 12:09:40;;;;;;;6.78;2.70;;;;;;;2.28;90.01;101455.63;5033480;28;20099;-87
2022/01/20 12:12:26;;;;;;;10.63;2.05;;;;;;;2.37;90.28;101457.69;5041413;28;20048;-87
2022/01/20 12:14:54;;;;;;;9.07;2.28;;;;;;;2.55;86.99;101445.44;5030508;28;20158;-87
2022/01/20 12:17:21;;;;;;;8.77;2.30;;;;;;;2.66;85.40;101445.88;5029267;28;20507;-86
2022/01/20 12:19:55;;;;;;;9.13;2.08;;;;;;;2.83;83.64;101455.91;5047043;28;20045;-89